createdAt,value
2024-02-23T00:00:56.520Z,9.64
2024-02-23T00:03:24.804Z,9.65
2024-02-23T00:05:52.992Z,9.58
2024-02-23T00:08:22.679Z,9.60
2024-02-23T00:10:51.415Z,9.59
2024-02-23T00:13:19.716Z,9.62
2024-02-23T00:15:48.084Z,9.62
2024-02-23T00:18:18.346Z,9.52
2024-02-23T00:20:46.774Z,9.52
2024-02-23T00:23:15.105Z,9.54
2024-02-23T00:25:44.846Z,9.51
2024-02-23T00:28:13.065Z,9.49
2024-02-23T00:30:41.237Z,9.51
2024-02-23T00:33:11.172Z,9.57
2024-02-23T00:35:39.464Z,9.52
2024-02-23T00:38:09.246Z,9.58
2024-02-23T00:40:37.652Z,9.65
2024-02-23T00:43:07.341Z,9.61
2024-02-23T00:45:35.577Z,9.50
2024-02-23T00:48:03.856Z,9.62
2024-02-23T00:50:32.151Z,9.72
2024-02-23T00:53:00.476Z,9.74
2024-02-23T00:55:28.770Z,9.86
2024-02-23T00:57:57.272Z,9.97
2024-02-23T01:00:26.879Z,10.08
2024-02-23T01:02:55.393Z,10.13
2024-02-23T01:05:23.763Z,10.08
2024-02-23T01:07:51.995Z,9.97
2024-02-23T01:10:20.481Z,10.00
2024-02-23T01:12:48.713Z,9.98
2024-02-23T01:15:17.251Z,9.97
2024-02-23T01:17:46.858Z,10.02
2024-02-23T01:20:15.502Z,9.98
2024-02-23T01:22:43.782Z,10.01
2024-02-23T01:25:12.034Z,10.11
2024-02-23T01:27:41.396Z,10.05
2024-02-23T01:30:10.347Z,10.10
2024-02-23T01:32:40.284Z,10.11
2024-02-23T01:35:10.661Z,10.15
2024-02-23T01:37:38.958Z,10.25
2024-02-23T01:40:08.768Z,10.17
2024-02-23T01:42:37.128Z,10.12
2024-02-23T01:45:06.122Z,10.17
2024-02-23T01:47:34.457Z,10.16
2024-02-23T01:50:03.260Z,10.16
2024-02-23T01:52:33.486Z,10.20
2024-02-23T01:55:02.064Z,10.17
2024-02-23T01:57:42.488Z,10.16
2024-02-23T02:00:19.963Z,10.12
2024-02-23T02:02:54.683Z,10.29
2024-02-23T02:05:23.935Z,10.25
2024-02-23T02:07:59.990Z,10.20
2024-02-23T02:10:28.482Z,10.31
2024-02-23T02:12:56.745Z,10.37
2024-02-23T02:15:25.046Z,10.45
2024-02-23T02:17:53.292Z,10.43
2024-02-23T02:20:26.621Z,10.49
2024-02-23T02:22:56.558Z,10.48
2024-02-23T02:25:24.793Z,10.50
2024-02-23T02:27:53.114Z,10.43
2024-02-23T02:30:21.375Z,10.57
2024-02-23T02:32:49.738Z,10.51
2024-02-23T02:35:18.330Z,10.54
2024-02-23T02:37:46.605Z,10.53
2024-02-23T02:40:16.824Z,10.51
2024-02-23T02:42:45.497Z,10.55
2024-02-23T02:45:13.832Z,10.59
2024-02-23T02:47:42.440Z,10.52
2024-02-23T02:50:11.487Z,10.59
2024-02-23T02:52:39.699Z,10.67
2024-02-23T02:55:09.289Z,10.55
2024-02-23T02:57:38.818Z,10.39
2024-02-23T03:00:11.839Z,10.33
2024-02-23T03:02:40.196Z,10.18
2024-02-23T03:05:09.196Z,10.08
2024-02-23T03:07:37.463Z,10.05
2024-02-23T03:10:06.721Z,9.91
2024-02-23T03:12:34.898Z,9.84
2024-02-23T03:15:04.839Z,9.84
2024-02-23T03:17:34.330Z,9.71
2024-02-23T03:20:02.929Z,9.63
2024-02-23T03:22:31.316Z,9.62
2024-02-23T03:24:59.503Z,9.69
2024-02-23T03:27:31.203Z,9.57
2024-02-23T03:29:59.415Z,9.56
2024-02-23T03:32:29.071Z,9.56
2024-02-23T03:34:57.371Z,9.47
2024-02-23T03:37:25.566Z,9.35
2024-02-23T03:39:53.815Z,9.38
2024-02-23T03:42:22.434Z,9.47
2024-02-23T03:44:51.369Z,9.32
2024-02-23T03:47:19.676Z,9.30
2024-02-23T03:49:49.321Z,9.40
2024-02-23T03:52:17.542Z,9.41
2024-02-23T03:54:45.723Z,9.40
2024-02-23T03:57:14.084Z,9.31
2024-02-23T03:59:42.418Z,9.32
2024-02-23T04:02:10.633Z,9.36
2024-02-23T04:04:38.841Z,9.35
2024-02-23T04:07:08.443Z,9.25
2024-02-23T04:09:36.701Z,9.20
2024-02-23T04:12:05.721Z,9.07
2024-02-23T04:14:35.045Z,9.14
2024-02-23T04:17:03.308Z,8.96
2024-02-23T04:19:31.586Z,9.02
2024-02-23T04:21:59.983Z,8.96
2024-02-23T04:24:29.538Z,8.86
2024-02-23T04:26:57.731Z,8.92
2024-02-23T04:29:25.930Z,8.92
2024-02-23T04:31:54.166Z,8.88
2024-02-23T04:34:22.440Z,8.76
2024-02-23T04:36:50.685Z,8.83
2024-02-23T04:39:19.016Z,8.83
2024-02-23T04:41:48.564Z,8.81
2024-02-23T04:44:16.992Z,8.81
2024-02-23T04:46:45.280Z,8.89
2024-02-23T04:49:14.231Z,8.55
2024-02-23T04:51:42.481Z,8.62
2024-02-23T04:54:10.671Z,8.75
2024-02-23T04:56:38.981Z,8.60
2024-02-23T04:59:08.632Z,8.45
2024-02-23T05:01:39.990Z,8.58
2024-02-23T05:04:08.213Z,8.51
2024-02-23T05:06:36.525Z,8.66
2024-02-23T05:09:05.348Z,8.63
2024-02-23T05:11:33.593Z,8.41
2024-02-23T05:14:01.928Z,8.37
2024-02-23T05:16:31.593Z,8.51
2024-02-23T05:18:59.895Z,8.40
2024-02-23T05:21:28.099Z,8.31
2024-02-23T05:23:56.292Z,8.34
2024-02-23T05:26:24.565Z,8.22
2024-02-23T05:28:53.612Z,8.21
2024-02-23T05:31:22.180Z,8.08
2024-02-23T05:33:51.767Z,8.09
2024-02-23T05:36:20.955Z,7.93
2024-02-23T05:38:49.205Z,8.05
2024-02-23T05:41:17.426Z,7.92
2024-02-23T05:43:45.748Z,7.92
2024-02-23T05:46:14.060Z,7.89
2024-02-23T05:48:42.491Z,7.88
2024-02-23T05:51:12.089Z,8.02
2024-02-23T05:53:40.327Z,8.06
2024-02-23T05:56:08.794Z,8.00
2024-02-23T05:58:37.174Z,7.94
2024-02-23T06:01:05.629Z,7.99
2024-02-23T06:03:33.926Z,7.96
2024-02-23T06:06:02.191Z,8.06
2024-02-23T06:08:31.793Z,7.95
2024-02-23T06:11:01.033Z,7.83
2024-02-23T06:13:30.207Z,7.75
2024-02-23T06:15:58.572Z,7.55
2024-02-23T06:18:26.865Z,7.46
2024-02-23T06:20:55.097Z,7.43
2024-02-23T06:23:24.088Z,7.47
2024-02-23T06:25:53.891Z,7.28
2024-02-23T06:28:22.107Z,7.22
2024-02-23T06:30:50.290Z,7.17
2024-02-23T06:33:18.576Z,7.13
2024-02-23T06:35:47.136Z,7.03
2024-02-23T06:38:15.430Z,6.97
2024-02-23T06:40:48.877Z,6.87
2024-02-23T06:43:23.477Z,6.93
2024-02-23T06:45:52.132Z,7.01
2024-02-23T06:48:20.572Z,6.84
2024-02-23T06:50:48.977Z,6.86
2024-02-23T06:53:17.405Z,6.90
2024-02-23T06:55:45.621Z,6.91
2024-02-23T06:58:15.545Z,6.97
2024-02-23T07:00:47.351Z,6.85
2024-02-23T07:03:16.088Z,6.86
2024-02-23T07:05:44.605Z,6.85
2024-02-23T07:08:12.989Z,6.74
2024-02-23T07:10:41.462Z,6.80
2024-02-23T07:13:09.952Z,6.91
2024-02-23T07:15:38.397Z,6.96
2024-02-23T07:18:09.739Z,6.98
2024-02-23T07:20:38.881Z,7.11
2024-02-23T07:23:07.840Z,7.19
2024-02-23T07:25:37.139Z,7.18
2024-02-23T07:28:05.636Z,7.18
2024-02-23T07:30:33.930Z,7.11
2024-02-23T07:33:02.179Z,7.34
2024-02-23T07:35:31.987Z,7.43
2024-02-23T07:38:00.831Z,7.38
2024-02-23T07:40:29.032Z,7.56
2024-02-23T07:42:57.356Z,7.59
2024-02-23T07:45:26.820Z,7.83
2024-02-23T07:47:55.134Z,7.87
2024-02-23T07:50:23.541Z,7.85
2024-02-23T07:52:53.244Z,8.12
2024-02-23T07:55:21.498Z,8.31
2024-02-23T07:57:50.052Z,8.63
2024-02-23T08:00:18.952Z,8.68
2024-02-23T08:02:47.184Z,9.04
2024-02-23T08:05:15.574Z,8.78
2024-02-23T08:07:44.944Z,8.98
2024-02-23T08:10:14.512Z,8.91
2024-02-23T08:12:43.705Z,8.90
2024-02-23T08:15:12.281Z,8.82
2024-02-23T08:17:40.753Z,8.48
2024-02-23T08:20:10.121Z,8.87
2024-02-23T08:22:38.602Z,8.84
2024-02-23T08:25:07.251Z,8.68
2024-02-23T08:27:36.788Z,8.89
2024-02-23T08:30:05.859Z,8.72
2024-02-23T08:32:34.167Z,8.36
2024-02-23T08:35:02.536Z,8.22
2024-02-23T08:37:30.789Z,8.27
2024-02-23T08:39:58.977Z,8.37
2024-02-23T08:42:27.806Z,8.75
2024-02-23T08:44:57.476Z,8.48
2024-02-23T08:47:26.006Z,8.30
2024-02-23T08:49:54.401Z,8.57
2024-02-23T08:52:23.075Z,8.58
2024-02-23T08:54:51.348Z,8.69
2024-02-23T08:57:21.026Z,8.64
2024-02-23T08:59:49.369Z,8.86
2024-02-23T09:02:19.824Z,8.55
2024-02-23T09:04:48.379Z,8.44
2024-02-23T09:07:16.658Z,8.75
2024-02-23T09:09:45.590Z,8.81
2024-02-23T09:12:15.996Z,8.60
2024-02-23T09:14:44.724Z,8.61
2024-02-23T09:17:13.795Z,8.63
2024-02-23T09:19:43.527Z,8.49
2024-02-23T09:22:11.779Z,8.42
2024-02-23T09:24:41.444Z,8.68
2024-02-23T09:27:09.795Z,8.61
2024-02-23T09:29:38.061Z,8.94
2024-02-23T09:32:07.242Z,8.95
2024-02-23T09:34:35.511Z,9.07
2024-02-23T09:37:05.113Z,9.10
2024-02-23T09:39:33.293Z,9.10
2024-02-23T09:42:03.792Z,9.08
2024-02-23T09:44:35.522Z,9.18
2024-02-23T09:47:09.389Z,9.07
2024-02-23T09:49:40.192Z,9.04
2024-02-23T09:52:11.527Z,9.00
2024-02-23T09:54:41.096Z,8.96
2024-02-23T09:57:11.233Z,9.08
2024-02-23T09:59:40.370Z,9.01
2024-02-23T10:02:11.053Z,9.31
2024-02-23T10:04:40.791Z,9.03
2024-02-23T10:07:10.494Z,9.40
2024-02-23T10:09:39.010Z,9.89
2024-02-23T10:12:08.858Z,10.32
2024-02-23T10:14:37.287Z,10.52
2024-02-23T10:17:08.135Z,10.17
2024-02-23T10:19:36.540Z,10.09
2024-02-23T10:22:04.951Z,9.68
2024-02-23T10:24:34.514Z,9.45
2024-02-23T10:27:03.496Z,9.26
2024-02-23T10:29:32.619Z,9.83
2024-02-23T10:32:04.535Z,9.58
2024-02-23T10:34:33.790Z,9.24
2024-02-23T10:37:02.008Z,9.41
2024-02-23T10:39:31.843Z,9.43
2024-02-23T10:42:05.971Z,9.82
2024-02-23T10:44:34.365Z,10.25
2024-02-23T10:47:04.187Z,10.10
2024-02-23T10:49:33.308Z,10.15
2024-02-23T10:52:03.803Z,10.09
2024-02-23T10:54:33.380Z,10.33
2024-02-23T10:57:04.442Z,10.23
2024-02-23T10:59:33.046Z,10.58
2024-02-23T11:02:02.394Z,9.96
2024-02-23T11:04:33.711Z,9.98
2024-02-23T11:07:06.458Z,9.76
2024-02-23T11:09:34.915Z,9.79
2024-02-23T11:12:07.407Z,9.37
2024-02-23T11:14:38.396Z,9.60
2024-02-23T11:17:07.280Z,9.67
2024-02-23T11:19:37.134Z,10.28
2024-02-23T11:22:09.215Z,10.90
2024-02-23T11:24:46.450Z,10.57
2024-02-23T11:27:19.326Z,10.31
2024-02-23T11:29:48.645Z,9.67
2024-02-23T11:32:18.532Z,9.98
2024-02-23T11:34:57.735Z,10.18
2024-02-23T11:37:26.062Z,9.82
2024-02-23T11:39:55.076Z,10.02
2024-02-23T11:42:25.847Z,10.01
2024-02-23T11:44:55.828Z,10.40
2024-02-23T11:47:24.090Z,10.10
2024-02-23T11:49:53.542Z,10.17
2024-02-23T11:52:22.244Z,9.73
2024-02-23T11:54:50.645Z,9.76
2024-02-23T11:57:19.256Z,10.00
2024-02-23T11:59:48.899Z,10.14
2024-02-23T12:02:17.118Z,10.26
2024-02-23T12:04:45.553Z,10.25
2024-02-23T12:07:14.406Z,10.09
2024-02-23T12:09:43.159Z,10.23
2024-02-23T12:12:11.698Z,10.39
2024-02-23T12:14:41.564Z,10.02
2024-02-23T12:17:11.266Z,10.20
2024-02-23T12:19:40.906Z,10.16
2024-02-23T12:22:09.283Z,10.46
2024-02-23T12:24:37.497Z,10.32
2024-02-23T12:27:07.202Z,10.27
2024-02-23T12:29:35.669Z,10.61
2024-02-23T12:32:08.138Z,10.38
2024-02-23T12:34:37.899Z,10.30
2024-02-23T12:37:07.038Z,10.30
2024-02-23T12:39:35.294Z,10.44
2024-02-23T12:42:03.703Z,10.29
2024-02-23T12:44:31.992Z,10.36
2024-02-23T12:47:00.413Z,10.11
2024-02-23T12:49:28.874Z,10.21
2024-02-23T12:51:58.556Z,10.13
2024-02-23T12:54:26.823Z,10.28
2024-02-23T12:56:55.150Z,10.10
2024-02-23T12:59:23.621Z,10.35
2024-02-23T13:01:53.420Z,10.39
2024-02-23T13:04:22.041Z,10.62
2024-02-23T13:06:50.534Z,10.19
2024-02-23T13:09:20.161Z,10.17
2024-02-23T13:11:49.204Z,10.23
2024-02-23T13:14:17.751Z,10.38
2024-02-23T13:16:46.016Z,10.27
2024-02-23T13:19:14.301Z,10.33
2024-02-23T13:21:43.574Z,10.13
2024-02-23T13:24:11.838Z,9.90
2024-02-23T13:26:41.354Z,9.89
2024-02-23T13:29:09.570Z,10.09
2024-02-23T13:31:39.426Z,10.01
2024-02-23T13:34:08.206Z,9.92
2024-02-23T13:36:36.473Z,9.80
2024-02-23T13:39:04.781Z,10.14
2024-02-23T13:41:33.248Z,10.32
2024-02-23T13:44:02.846Z,9.79
2024-02-23T13:46:31.239Z,9.63
2024-02-23T13:49:07.734Z,9.83
2024-02-23T13:51:36.123Z,9.82
2024-02-23T13:54:05.113Z,9.68
2024-02-23T13:56:33.415Z,9.71
2024-02-23T13:59:03.440Z,9.45
2024-02-23T14:01:31.819Z,9.53
2024-02-23T14:04:00.321Z,9.58
2024-02-23T14:06:28.637Z,9.53
2024-02-23T14:08:56.867Z,9.63
2024-02-23T14:11:25.193Z,9.60
2024-02-23T14:13:54.991Z,9.44
2024-02-23T14:16:25.349Z,9.36
2024-02-23T14:18:53.869Z,9.27
2024-02-23T14:21:22.716Z,9.26
2024-02-23T14:23:50.887Z,9.29
2024-02-23T14:26:19.385Z,9.12
2024-02-23T14:28:47.638Z,9.17
2024-02-23T14:31:15.942Z,9.10
2024-02-23T14:33:48.020Z,9.20
2024-02-23T14:36:16.745Z,9.17
2024-02-23T14:38:45.135Z,9.15
2024-02-23T14:41:13.521Z,9.19
2024-02-23T14:43:41.759Z,8.84
2024-02-23T14:46:10.518Z,8.86
2024-02-23T14:48:38.908Z,8.83
2024-02-23T14:51:10.446Z,8.85
2024-02-23T14:53:38.994Z,8.66
2024-02-23T14:56:07.998Z,8.69
2024-02-23T14:58:36.241Z,8.75
2024-02-23T15:01:05.141Z,8.69
2024-02-23T15:03:34.206Z,8.71
2024-02-23T15:06:03.257Z,8.64
2024-02-23T15:08:32.893Z,8.91
2024-02-23T15:11:01.237Z,8.79
2024-02-23T15:13:29.582Z,8.72
2024-02-23T15:15:57.898Z,8.81
2024-02-23T15:18:26.165Z,8.82
2024-02-23T15:20:54.651Z,8.68
2024-02-23T15:23:25.010Z,8.71
2024-02-23T15:26:04.141Z,8.60
2024-02-23T15:28:36.029Z,8.63
2024-02-23T15:31:04.687Z,8.46
2024-02-23T15:33:33.124Z,8.35
2024-02-23T15:36:01.438Z,8.26
2024-02-23T15:38:29.832Z,8.29
2024-02-23T15:40:59.390Z,8.14
2024-02-23T15:43:29.199Z,8.12
2024-02-23T15:45:57.479Z,8.14
2024-02-23T15:48:26.002Z,8.12
2024-02-23T15:51:10.228Z,8.11
2024-02-23T15:53:42.858Z,7.95
2024-02-23T15:56:12.538Z,7.84
2024-02-23T15:58:40.903Z,7.78
2024-02-23T16:01:09.189Z,7.66
2024-02-23T16:03:37.875Z,7.51
2024-02-23T16:06:06.820Z,7.46
2024-02-23T16:08:42.379Z,7.32
2024-02-23T16:11:12.763Z,7.19
2024-02-23T16:13:42.538Z,6.97
2024-02-23T16:16:12.169Z,6.87
2024-02-23T16:18:40.724Z,6.71
2024-02-23T16:21:10.714Z,6.44
2024-02-23T16:23:39.044Z,6.46
2024-02-23T16:26:07.465Z,6.23
2024-02-23T16:28:37.804Z,6.25
2024-02-23T16:31:06.067Z,6.38
2024-02-23T16:33:34.410Z,6.58
2024-02-23T16:36:02.668Z,6.65
2024-02-23T16:38:30.920Z,6.70
2024-02-23T16:40:59.203Z,6.74
2024-02-23T16:43:27.622Z,6.71
2024-02-23T16:45:57.176Z,6.64
2024-02-23T16:48:25.451Z,6.66
2024-02-23T16:50:54.686Z,6.60
2024-02-23T16:53:23.061Z,6.58
2024-02-23T16:55:51.357Z,6.43
2024-02-23T16:58:23.299Z,6.56
2024-02-23T17:00:54.365Z,6.51
2024-02-23T17:03:23.955Z,6.44
2024-02-23T17:05:52.984Z,6.45
2024-02-23T17:08:21.358Z,6.57
2024-02-23T17:10:49.817Z,6.54
2024-02-23T17:13:18.125Z,6.54
2024-02-23T17:15:46.319Z,6.49
2024-02-23T17:18:17.868Z,6.38
2024-02-23T17:20:47.474Z,6.33
2024-02-23T17:23:15.713Z,6.36
2024-02-23T17:25:44.783Z,6.39
2024-02-23T17:28:14.304Z,6.33
2024-02-23T17:30:42.671Z,6.30
2024-02-23T17:33:11.004Z,6.30
2024-02-23T17:35:39.881Z,6.03
2024-02-23T17:38:09.797Z,6.10
2024-02-23T17:40:38.015Z,6.07
2024-02-23T17:43:06.211Z,5.76
2024-02-23T17:45:34.404Z,5.81
2024-02-23T17:48:02.741Z,5.91
2024-02-23T17:50:32.262Z,5.76
2024-02-23T17:53:00.581Z,5.68
2024-02-23T17:55:30.234Z,5.38
2024-02-23T17:58:02.696Z,5.52
2024-02-23T18:00:37.589Z,5.45
2024-02-23T18:03:06.229Z,5.58
2024-02-23T18:05:34.528Z,5.51
2024-02-23T18:08:03.263Z,5.27
2024-02-23T18:10:33.528Z,5.05
2024-02-23T18:13:02.758Z,4.94
2024-02-23T18:15:30.937Z,5.04
2024-02-23T18:17:59.389Z,4.89
2024-02-23T18:20:27.742Z,4.90
2024-02-23T18:22:56.823Z,4.75
2024-02-23T18:25:25.077Z,4.75
2024-02-23T18:27:54.634Z,4.76
2024-02-23T18:30:22.856Z,4.28
2024-02-23T18:32:51.258Z,4.46
2024-02-23T18:35:19.781Z,4.41
2024-02-23T18:37:48.389Z,4.31
2024-02-23T18:40:16.818Z,4.43
2024-02-23T18:42:45.024Z,4.38
2024-02-23T18:45:15.455Z,4.08
2024-02-23T18:47:43.766Z,3.91
2024-02-23T18:50:12.389Z,3.85
2024-02-23T18:52:40.719Z,3.84
2024-02-23T18:55:09.609Z,4.02
2024-02-23T18:57:37.852Z,4.08
2024-02-23T19:00:07.720Z,4.27
2024-02-23T19:02:37.491Z,4.15
2024-02-23T19:05:07.576Z,3.75
2024-02-23T19:07:35.900Z,3.83
2024-02-23T19:10:04.442Z,3.96
2024-02-23T19:12:32.927Z,3.88
2024-02-23T19:15:01.419Z,3.93
2024-02-23T19:17:30.516Z,3.94
2024-02-23T19:20:00.297Z,3.83
2024-02-23T19:22:29.250Z,3.91
2024-02-23T19:24:57.457Z,3.75
2024-02-23T19:27:25.676Z,3.46
2024-02-23T19:29:54.591Z,3.68
2024-02-23T19:32:22.806Z,3.68
2024-02-23T19:34:51.033Z,3.63
2024-02-23T19:37:20.575Z,3.52
2024-02-23T19:39:48.921Z,3.75
2024-02-23T19:42:17.113Z,3.54
2024-02-23T19:44:45.371Z,3.56
2024-02-23T19:47:14.366Z,3.65
2024-02-23T19:49:42.600Z,3.71
2024-02-23T19:52:14.734Z,3.70
2024-02-23T19:54:46.076Z,3.55
2024-02-23T19:57:14.321Z,3.71
2024-02-23T19:59:42.624Z,3.40
2024-02-23T20:02:13.975Z,3.39
2024-02-23T20:04:43.094Z,3.41
2024-02-23T20:07:14.241Z,3.41
2024-02-23T20:09:43.813Z,3.20
2024-02-23T20:12:14.802Z,2.99
2024-02-23T20:14:43.898Z,3.29
2024-02-23T20:17:12.201Z,3.17
2024-02-23T20:19:41.572Z,3.19
2024-02-23T20:22:09.888Z,3.24
2024-02-23T20:24:39.989Z,3.40
2024-02-23T20:27:11.112Z,3.70
2024-02-23T20:29:39.372Z,3.42
2024-02-23T20:32:15.993Z,3.42
2024-02-23T20:34:51.121Z,3.27
2024-02-23T20:37:19.501Z,3.49
2024-02-23T20:39:47.765Z,2.98
2024-02-23T20:42:17.753Z,3.05
2024-02-23T20:44:46.027Z,3.26
2024-02-23T20:47:14.783Z,3.47
2024-02-23T20:49:44.501Z,3.42
2024-02-23T20:52:16.920Z,3.39
2024-02-23T20:54:48.045Z,3.39
2024-02-23T20:57:18.314Z,3.46
2024-02-23T20:59:46.846Z,3.12
2024-02-23T21:02:20.687Z,3.35
2024-02-23T21:04:50.239Z,3.47
2024-02-23T21:07:19.584Z,3.42
2024-02-23T21:09:48.385Z,3.44
2024-02-23T21:12:18.518Z,3.54
2024-02-23T21:14:46.931Z,3.59
2024-02-23T21:17:17.062Z,3.62
2024-02-23T21:19:45.276Z,3.65
2024-02-23T21:22:13.482Z,3.54
2024-02-23T21:24:45.917Z,3.35
2024-02-23T21:27:14.572Z,3.46
2024-02-23T21:29:45.086Z,3.18
2024-02-23T21:32:13.538Z,3.41
2024-02-23T21:34:41.915Z,3.38
2024-02-23T21:37:13.511Z,3.33
2024-02-23T21:39:41.818Z,3.34
2024-02-23T21:42:10.109Z,3.08
2024-02-23T21:44:38.312Z,3.20
2024-02-23T21:47:08.052Z,3.27
2024-02-23T21:49:35.488Z,3.33
2024-02-23T21:52:06.522Z,3.15
2024-02-23T21:54:34.990Z,3.11
2024-02-23T21:57:03.649Z,2.91
2024-02-23T21:59:32.014Z,2.97
2024-02-23T22:02:05.572Z,2.94
2024-02-23T22:04:36.736Z,2.99
2024-02-23T22:07:05.413Z,2.96
2024-02-23T22:09:33.605Z,2.85
2024-02-23T22:12:02.807Z,2.54
2024-02-23T22:14:31.612Z,2.68
2024-02-23T22:16:59.946Z,2.68
2024-02-23T22:19:28.384Z,2.62
2024-02-23T22:21:57.977Z,2.62
2024-02-23T22:24:26.293Z,2.90
2024-02-23T22:26:56.024Z,2.83
2024-02-23T22:29:24.301Z,2.99
2024-02-23T22:31:52.634Z,2.73
2024-02-23T22:34:21.493Z,2.86
2024-02-23T22:36:50.475Z,2.68
2024-02-23T22:39:20.521Z,2.41
2024-02-23T22:41:48.920Z,2.24
2024-02-23T22:44:17.417Z,2.15
2024-02-23T22:46:46.813Z,2.12
2024-02-23T22:49:15.141Z,2.61
2024-02-23T22:51:45.153Z,2.60
2024-02-23T22:54:13.607Z,2.73
2024-02-23T22:56:43.340Z,2.50
2024-02-23T22:59:12.450Z,2.54
2024-02-23T23:01:41.180Z,2.85
2024-02-23T23:04:09.483Z,2.76
2024-02-23T23:06:39.226Z,2.61
2024-02-23T23:09:10.387Z,2.45
2024-02-23T23:11:39.226Z,2.49
2024-02-23T23:14:09.694Z,2.59
2024-02-23T23:16:38.206Z,2.50
2024-02-23T23:19:06.550Z,2.42
2024-02-23T23:21:34.809Z,2.65
2024-02-23T23:24:03.041Z,2.69
2024-02-23T23:26:31.378Z,2.77
2024-02-23T23:28:59.630Z,2.82
2024-02-23T23:31:29.821Z,2.89
2024-02-23T23:33:58.724Z,2.81
2024-02-23T23:36:27.024Z,2.81
2024-02-23T23:39:00.016Z,2.76
2024-02-23T23:41:28.242Z,2.92
2024-02-23T23:43:56.527Z,3.03
2024-02-23T23:46:24.782Z,3.10
2024-02-23T23:48:54.295Z,2.92
2024-02-23T23:51:22.539Z,2.87
2024-02-23T23:53:56.437Z,2.52
2024-02-23T23:56:24.839Z,2.45
2024-02-23T23:58:53.040Z,2.38
